createdAt,value
2019-04-28T00:01:32.548Z,8.10
2019-04-28T00:04:03.346Z,8.10
2019-04-28T00:06:34.445Z,8.10
2019-04-28T00:09:03.790Z,8.10
2019-04-28T00:11:32.795Z,8.10
2019-04-28T00:14:01.983Z,8.00
2019-04-28T00:16:31.344Z,8.10
2019-04-28T00:19:01.235Z,8.00
2019-04-28T00:21:36.516Z,8.00
2019-04-28T00:24:23.084Z,8.00
2019-04-28T00:27:01.807Z,7.90
2019-04-28T00:29:38.466Z,7.90
2019-04-28T00:32:01.880Z,7.90
2019-04-28T00:34:31.175Z,7.90
2019-04-28T00:37:21.023Z,7.90
2019-04-28T00:39:50.969Z,7.90
2019-04-28T00:42:20.098Z,7.90
2019-04-28T00:44:48.970Z,7.90
2019-04-28T00:47:17.866Z,7.90
2019-04-28T00:49:46.906Z,7.80
2019-04-28T00:52:17.228Z,7.80
2019-04-28T00:54:47.135Z,7.80
2019-04-28T00:57:16.705Z,7.70
2019-04-28T00:59:55.154Z,7.80
2019-04-28T01:02:24.812Z,7.80
2019-04-28T01:04:54.057Z,7.80
2019-04-28T01:07:23.440Z,7.70
2019-04-28T01:09:52.417Z,7.80
2019-04-28T01:12:21.527Z,7.80
2019-04-28T01:14:54.524Z,7.80
2019-04-28T01:17:43.477Z,7.70
2019-04-28T01:20:14.384Z,7.70
2019-04-28T01:22:43.717Z,7.70
2019-04-28T01:25:12.716Z,7.70
2019-04-28T01:27:53.103Z,7.80
2019-04-28T01:30:40.972Z,7.70
2019-04-28T01:33:29.775Z,7.70
2019-04-28T01:36:00.350Z,7.70
2019-04-28T01:38:30.258Z,7.70
2019-04-28T01:40:59.773Z,7.70
2019-04-28T01:43:31.310Z,7.70
2019-04-28T01:46:00.480Z,7.60
2019-04-28T01:48:31.356Z,7.50
2019-04-28T01:51:00.016Z,7.50
2019-04-28T01:53:30.673Z,7.50
2019-04-28T01:55:59.619Z,7.40
2019-04-28T01:58:29.700Z,7.40
2019-04-28T02:00:59.638Z,7.40
2019-04-28T02:03:30.578Z,7.40
2019-04-28T02:06:00.205Z,7.40
2019-04-28T02:08:30.232Z,7.40
2019-04-28T02:11:00.213Z,7.40
2019-04-28T02:13:29.829Z,7.40
2019-04-28T02:16:00.074Z,7.50
2019-04-28T02:18:30.040Z,7.40
2019-04-28T02:21:14.732Z,7.40
2019-04-28T02:23:43.580Z,7.50
2019-04-28T02:26:12.522Z,7.50
2019-04-28T02:28:41.310Z,7.50
2019-04-28T02:31:11.486Z,7.50
2019-04-28T02:33:41.376Z,7.50
2019-04-28T02:36:12.346Z,7.50
2019-04-28T02:38:41.680Z,7.50
2019-04-28T02:41:11.237Z,7.50
2019-04-28T02:43:41.051Z,7.40
2019-04-28T02:46:10.594Z,7.40
2019-04-28T02:48:40.419Z,7.40
2019-04-28T02:51:17.037Z,7.40
2019-04-28T02:53:50.880Z,7.30
2019-04-28T02:56:21.170Z,7.30
2019-04-28T02:58:51.025Z,7.30
2019-04-28T03:01:25.993Z,7.30
2019-04-28T03:03:50.794Z,7.30
2019-04-28T03:06:20.656Z,7.30
2019-04-28T03:08:50.587Z,7.20
2019-04-28T03:11:20.397Z,7.30
2019-04-28T03:13:51.161Z,7.20
2019-04-28T03:16:22.896Z,7.20
2019-04-28T03:18:51.534Z,7.10
2019-04-28T03:21:21.489Z,7.10
2019-04-28T03:23:51.853Z,7.10
2019-04-28T03:26:30.853Z,7.10
2019-04-28T03:29:10.875Z,7.10
2019-04-28T03:32:10.104Z,7.10
2019-04-28T03:34:22.895Z,7.20
2019-04-28T03:36:51.706Z,7.20
2019-04-28T03:39:20.505Z,7.30
2019-04-28T03:41:50.327Z,7.30
2019-04-28T03:44:20.831Z,7.30
2019-04-28T03:46:53.194Z,7.40
2019-04-28T03:49:32.259Z,7.30
2019-04-28T03:52:02.269Z,7.30
2019-04-28T03:54:31.141Z,7.40
2019-04-28T03:57:01.267Z,7.20
2019-04-28T03:59:31.149Z,7.30
2019-04-28T04:02:03.249Z,7.30
2019-04-28T04:04:32.225Z,7.30
2019-04-28T04:07:01.602Z,7.20
2019-04-28T04:09:42.501Z,7.20
2019-04-28T04:12:24.701Z,7.30
2019-04-28T04:15:00.804Z,7.30
2019-04-28T04:17:51.630Z,7.30
2019-04-28T04:20:24.509Z,7.30
2019-04-28T04:22:53.411Z,7.30
2019-04-28T04:25:22.485Z,7.30
2019-04-28T04:27:51.514Z,7.40
2019-04-28T04:30:20.831Z,7.40
2019-04-28T04:32:50.700Z,7.50
2019-04-28T04:35:21.433Z,7.50
2019-04-28T04:37:50.510Z,7.50
2019-04-28T04:40:20.978Z,7.50
2019-04-28T04:42:50.248Z,7.50
2019-04-28T04:45:20.283Z,7.60
2019-04-28T04:47:50.409Z,7.60
2019-04-28T04:50:20.922Z,7.70
2019-04-28T04:52:50.290Z,7.70
2019-04-28T04:55:21.171Z,7.70
2019-04-28T04:57:50.739Z,7.70
2019-04-28T05:00:27.800Z,7.60
2019-04-28T05:03:02.833Z,7.60
2019-04-28T05:05:38.020Z,7.60
2019-04-28T05:08:06.900Z,7.60
2019-04-28T05:10:35.789Z,7.50
2019-04-28T05:13:04.680Z,7.50
2019-04-28T05:15:33.695Z,7.50
2019-04-28T05:18:02.665Z,7.50
2019-04-28T05:20:31.564Z,7.60
2019-04-28T05:23:12.736Z,7.50
2019-04-28T05:25:43.077Z,7.60
2019-04-28T05:28:12.136Z,7.50
2019-04-28T05:30:42.944Z,7.50
2019-04-28T05:33:14.253Z,7.60
2019-04-28T05:35:43.537Z,7.60
2019-04-28T05:38:12.354Z,7.60
2019-04-28T05:40:41.236Z,7.60
2019-04-28T05:43:10.668Z,7.60
2019-04-28T05:45:39.882Z,7.70
2019-04-28T05:48:10.849Z,7.70
2019-04-28T05:51:09.437Z,7.70
2019-04-28T05:53:46.818Z,7.80
2019-04-28T05:56:29.486Z,7.80
2019-04-28T05:59:05.464Z,7.80
2019-04-28T06:01:53.535Z,7.80
2019-04-28T06:04:25.596Z,7.80
2019-04-28T06:06:59.757Z,7.90
2019-04-28T06:09:39.973Z,7.90
2019-04-28T06:12:11.596Z,8.00
2019-04-28T06:14:40.820Z,8.00
2019-04-28T06:17:10.861Z,8.00
2019-04-28T06:19:40.384Z,8.10
2019-04-28T06:22:09.644Z,8.10
2019-04-28T06:24:38.761Z,8.20
2019-04-28T06:27:07.771Z,8.30
2019-04-28T06:29:36.712Z,8.30
2019-04-28T06:32:05.816Z,8.30
2019-04-28T06:34:35.012Z,8.30
2019-04-28T06:37:04.019Z,8.20
2019-04-28T06:39:33.024Z,8.30
2019-04-28T06:42:02.252Z,8.30
2019-04-28T06:44:31.022Z,8.40
2019-04-28T06:46:59.932Z,8.40
2019-04-28T06:49:28.848Z,8.40
2019-04-28T06:51:57.698Z,8.50
2019-04-28T06:54:26.560Z,8.60
2019-04-28T06:56:55.453Z,8.60
2019-04-28T06:59:24.363Z,8.70
2019-04-28T07:01:53.605Z,8.70
2019-04-28T07:04:22.460Z,8.70
2019-04-28T07:06:51.426Z,8.70
2019-04-28T07:09:20.463Z,8.80
2019-04-28T07:11:50.689Z,8.80
2019-04-28T07:14:19.752Z,9.00
2019-04-28T07:16:48.664Z,9.10
2019-04-28T07:19:17.635Z,9.20
2019-04-28T07:22:01.192Z,9.30
2019-04-28T07:24:29.983Z,9.40
2019-04-28T07:26:58.961Z,9.50
2019-04-28T07:29:27.845Z,9.50
2019-04-28T07:31:57.164Z,9.50
2019-04-28T07:34:26.175Z,9.50
2019-04-28T07:36:55.452Z,9.60
2019-04-28T07:39:24.340Z,9.60
2019-04-28T07:41:53.377Z,9.70
2019-04-28T07:44:22.529Z,9.70
2019-04-28T07:46:51.388Z,9.70
2019-04-28T07:49:20.488Z,9.60
2019-04-28T07:51:56.252Z,9.60
2019-04-28T07:54:25.237Z,9.50
2019-04-28T07:56:54.174Z,9.50
2019-04-28T07:59:23.177Z,9.60
2019-04-28T08:01:52.156Z,9.60
2019-04-28T08:04:21.181Z,9.60
2019-04-28T08:06:50.145Z,9.60
2019-04-28T08:09:19.724Z,9.60
2019-04-28T08:11:48.733Z,9.70
2019-04-28T08:14:19.650Z,9.70
2019-04-28T08:16:48.568Z,9.60
2019-04-28T08:19:17.529Z,9.60
2019-04-28T08:21:46.453Z,9.50
2019-04-28T08:24:15.444Z,9.50
2019-04-28T08:26:44.808Z,9.50
2019-04-28T08:29:13.926Z,9.50
2019-04-28T08:31:56.102Z,9.60
2019-04-28T08:34:24.905Z,9.60
2019-04-28T08:36:53.777Z,9.70
2019-04-28T08:39:32.644Z,9.70
2019-04-28T08:42:01.655Z,9.80
2019-04-28T08:44:30.664Z,9.80
2019-04-28T08:46:59.563Z,9.90
2019-04-28T08:49:28.577Z,10.00
2019-04-28T08:51:57.808Z,10.00
2019-04-28T08:54:26.785Z,10.10
2019-04-28T08:56:55.752Z,10.10
2019-04-28T08:59:24.670Z,10.20
2019-04-28T09:01:53.564Z,10.20
2019-04-28T09:04:22.804Z,10.20
2019-04-28T09:06:52.117Z,10.20
2019-04-28T09:09:21.708Z,10.30
2019-04-28T09:11:52.921Z,10.30
2019-04-28T09:14:21.872Z,10.20
2019-04-28T09:16:50.648Z,10.30
2019-04-28T09:19:19.627Z,10.30
2019-04-28T09:21:50.340Z,10.20
2019-04-28T09:24:25.215Z,10.30
2019-04-28T09:26:54.260Z,10.40
2019-04-28T09:29:23.217Z,10.50
2019-04-28T09:31:52.120Z,10.50
2019-04-28T09:34:28.575Z,10.50
2019-04-28T09:36:57.894Z,10.50
2019-04-28T09:39:49.092Z,10.60
2019-04-28T09:42:35.696Z,10.70
2019-04-28T09:45:07.193Z,10.80
2019-04-28T09:47:36.024Z,10.80
2019-04-28T09:50:05.344Z,10.90
2019-04-28T09:52:34.356Z,11.00
2019-04-28T09:55:03.336Z,11.10
2019-04-28T09:57:32.332Z,11.20
2019-04-28T10:00:01.225Z,11.20
2019-04-28T10:02:30.510Z,11.20
2019-04-28T10:04:59.690Z,11.20
2019-04-28T10:07:28.709Z,11.30
2019-04-28T10:09:57.525Z,11.50
2019-04-28T10:12:27.514Z,11.60
2019-04-28T10:14:56.912Z,11.60
2019-04-28T10:17:26.181Z,11.20
2019-04-28T10:19:55.191Z,10.70
2019-04-28T10:22:24.108Z,10.40
2019-04-28T10:24:53.204Z,10.30
2019-04-28T10:27:21.992Z,10.20
2019-04-28T10:29:51.168Z,10.10
2019-04-28T10:32:20.070Z,10.20
2019-04-28T10:34:55.063Z,10.20
2019-04-28T10:37:19.510Z,10.20
2019-04-28T10:39:56.049Z,10.30
2019-04-28T10:42:25.036Z,10.40
2019-04-28T10:44:54.324Z,10.50
2019-04-28T10:47:23.343Z,10.70
2019-04-28T10:49:52.304Z,10.90
2019-04-28T10:52:21.636Z,11.10
2019-04-28T10:54:50.488Z,11.30
2019-04-28T10:57:19.605Z,11.40
2019-04-28T10:59:48.753Z,11.70
2019-04-28T11:02:17.660Z,12.00
2019-04-28T11:04:51.687Z,12.30
2019-04-28T11:07:21.108Z,12.50
2019-04-28T11:09:56.751Z,12.60
2019-04-28T11:12:27.716Z,12.70
2019-04-28T11:14:56.716Z,12.80
2019-04-28T11:17:26.564Z,13.00
2019-04-28T11:19:55.595Z,13.00
2019-04-28T11:22:24.467Z,12.90
2019-04-28T11:24:53.435Z,12.90
2019-04-28T11:27:22.680Z,13.00
2019-04-28T11:29:51.945Z,13.20
2019-04-28T11:32:20.924Z,13.40
2019-04-28T11:34:59.728Z,13.20
2019-04-28T11:37:28.620Z,13.10
2019-04-28T11:39:57.680Z,13.10
2019-04-28T11:42:26.616Z,13.10
2019-04-28T11:44:55.544Z,13.20
2019-04-28T11:47:24.761Z,13.40
2019-04-28T11:49:53.616Z,13.50
2019-04-28T11:52:22.920Z,13.60
2019-04-28T11:54:51.928Z,13.80
2019-04-28T11:57:20.899Z,14.10
2019-04-28T11:59:49.920Z,14.00
2019-04-28T12:02:18.795Z,14.10
2019-04-28T12:04:47.816Z,14.20
2019-04-28T12:07:16.986Z,14.40
2019-04-28T12:10:03.761Z,14.40
2019-04-28T12:12:41.356Z,14.30
2019-04-28T12:15:32.816Z,14.10
2019-04-28T12:18:16.309Z,14.10
2019-04-28T12:20:45.232Z,14.10
2019-04-28T12:23:15.385Z,14.00
2019-04-28T12:25:44.368Z,14.10
2019-04-28T12:28:13.164Z,14.30
2019-04-28T12:30:42.062Z,14.50
2019-04-28T12:33:10.900Z,14.50
2019-04-28T12:35:47.463Z,14.50
2019-04-28T12:38:10.804Z,14.40
2019-04-28T12:40:39.873Z,14.20
2019-04-28T12:43:09.046Z,13.90
2019-04-28T12:45:37.855Z,13.80
2019-04-28T12:48:06.852Z,13.60
2019-04-28T12:50:41.504Z,13.40
2019-04-28T12:53:10.546Z,13.40
2019-04-28T12:55:40.960Z,13.80
2019-04-28T12:58:10.257Z,14.60
2019-04-28T13:00:57.485Z,15.70
2019-04-28T13:03:50.409Z,16.70
2019-04-28T13:06:20.446Z,17.80
2019-04-28T13:08:49.744Z,18.50
2019-04-28T13:11:18.853Z,18.70
2019-04-28T13:13:48.904Z,18.60
2019-04-28T13:16:17.836Z,18.40
2019-04-28T13:18:46.896Z,17.70
2019-04-28T13:21:16.013Z,18.10
2019-04-28T13:23:45.012Z,18.60
2019-04-28T13:26:13.961Z,18.50
2019-04-28T13:28:42.856Z,19.10
2019-04-28T13:31:11.736Z,19.70
2019-04-28T13:33:55.419Z,19.90
2019-04-28T13:36:15.130Z,20.10
2019-04-28T13:38:42.056Z,20.50
2019-04-28T13:41:11.064Z,19.70
2019-04-28T13:43:39.864Z,19.00
2019-04-28T13:46:08.948Z,18.90
2019-04-28T13:48:37.928Z,18.60
2019-04-28T13:51:06.833Z,18.60
2019-04-28T13:53:35.798Z,18.50
2019-04-28T13:56:04.950Z,18.60
2019-04-28T13:58:38.819Z,18.60
2019-04-28T14:01:25.804Z,18.40
2019-04-28T14:04:13.992Z,18.70
2019-04-28T14:06:46.457Z,18.50
2019-04-28T14:09:16.809Z,18.40
2019-04-28T14:11:46.442Z,18.30
2019-04-28T14:14:15.380Z,18.40
2019-04-28T14:16:44.318Z,19.00
2019-04-28T14:19:13.457Z,19.00
2019-04-28T14:21:42.421Z,19.00
2019-04-28T14:24:11.228Z,19.00
2019-04-28T14:26:40.304Z,19.00
2019-04-28T14:29:09.336Z,18.90
2019-04-28T14:31:38.227Z,18.90
2019-04-28T14:34:07.068Z,18.90
2019-04-28T14:36:42.320Z,19.10
2019-04-28T14:39:08.468Z,19.30
2019-04-28T14:41:37.786Z,19.00
2019-04-28T14:44:06.808Z,18.70
2019-04-28T14:46:36.005Z,18.80
2019-04-28T14:49:05.020Z,18.90
2019-04-28T14:51:34.036Z,19.20
2019-04-28T14:54:02.960Z,18.80
2019-04-28T14:56:31.844Z,18.50
2019-04-28T14:59:03.929Z,18.40
2019-04-28T15:01:56.744Z,18.50
2019-04-28T15:04:32.310Z,18.60
2019-04-28T15:07:05.848Z,18.70
2019-04-28T15:09:59.722Z,18.70
2019-04-28T15:12:28.690Z,18.60
2019-04-28T15:14:57.517Z,18.50
2019-04-28T15:17:26.388Z,18.10
2019-04-28T15:19:55.279Z,18.10
2019-04-28T15:22:24.320Z,18.10
2019-04-28T15:24:53.141Z,18.10
2019-04-28T15:27:21.941Z,18.20
2019-04-28T15:29:50.856Z,18.50
2019-04-28T15:32:19.729Z,18.30
2019-04-28T15:34:48.809Z,17.90
2019-04-28T15:37:19.633Z,17.20
2019-04-28T15:39:48.588Z,17.20
2019-04-28T15:42:17.456Z,17.00
2019-04-28T15:44:46.461Z,16.80
2019-04-28T15:47:15.431Z,16.50
2019-04-28T15:49:44.360Z,16.50
2019-04-28T15:52:13.392Z,16.20
2019-04-28T15:54:42.324Z,16.10
2019-04-28T15:57:11.316Z,16.00
2019-04-28T15:59:40.196Z,16.00
2019-04-28T16:02:09.133Z,15.80
2019-04-28T16:04:38.092Z,15.70
2019-04-28T16:07:06.981Z,15.70
2019-04-28T16:09:36.454Z,15.60
2019-04-28T16:12:05.663Z,15.50
2019-04-28T16:14:34.532Z,15.20
2019-04-28T16:17:03.713Z,14.80
2019-04-28T16:19:32.713Z,14.40
2019-04-28T16:22:01.641Z,14.30
2019-04-28T16:24:30.611Z,14.10
2019-04-28T16:26:59.532Z,13.90
2019-04-28T16:29:28.644Z,13.80
2019-04-28T16:31:57.693Z,13.60
2019-04-28T16:34:26.660Z,13.40
2019-04-28T16:36:55.556Z,13.20
2019-04-28T16:39:24.427Z,13.10
2019-04-28T16:42:03.536Z,13.00
2019-04-28T16:44:39.686Z,13.00
2019-04-28T16:47:08.792Z,13.00
2019-04-28T16:49:37.763Z,13.00
2019-04-28T16:52:06.700Z,13.00
2019-04-28T16:54:35.674Z,13.00
2019-04-28T16:57:11.361Z,13.00
2019-04-28T17:00:05.637Z,13.00
2019-04-28T17:02:39.024Z,13.00
2019-04-28T17:05:09.004Z,13.10
2019-04-28T17:07:37.949Z,13.00
2019-04-28T17:10:08.006Z,13.00
2019-04-28T17:12:36.976Z,13.00
2019-04-28T17:15:07.320Z,12.90
2019-04-28T17:17:36.376Z,12.70
2019-04-28T17:20:06.432Z,12.30
2019-04-28T17:22:35.304Z,12.20
2019-04-28T17:25:04.305Z,12.10
2019-04-28T17:27:33.268Z,12.00
2019-04-28T17:30:03.097Z,11.90
2019-04-28T17:32:31.870Z,11.70
2019-04-28T17:35:00.854Z,11.80
2019-04-28T17:37:30.080Z,11.70
2019-04-28T17:39:59.076Z,11.60
2019-04-28T17:42:27.956Z,11.50
2019-04-28T17:44:56.919Z,11.40
2019-04-28T17:47:26.008Z,11.40
2019-04-28T17:49:54.958Z,11.30
2019-04-28T17:52:24.340Z,11.30
2019-04-28T17:54:53.228Z,11.40
2019-04-28T17:57:22.044Z,11.50
2019-04-28T17:59:52.544Z,11.40
2019-04-28T18:02:59.157Z,11.40
2019-04-28T18:05:33.011Z,11.40
2019-04-28T18:08:03.264Z,11.40
2019-04-28T18:10:32.466Z,11.50
2019-04-28T18:13:01.372Z,11.50
2019-04-28T18:15:48.408Z,11.50
2019-04-28T18:18:48.786Z,11.50
2019-04-28T18:21:17.842Z,11.50
2019-04-28T18:23:46.874Z,11.40
2019-04-28T18:26:15.675Z,11.30
2019-04-28T18:28:45.272Z,11.30
2019-04-28T18:31:23.772Z,11.30
2019-04-28T18:34:12.316Z,11.30
2019-04-28T18:36:51.156Z,11.40
2019-04-28T18:39:37.955Z,11.40
2019-04-28T18:42:29.084Z,11.40
2019-04-28T18:44:57.977Z,11.40
2019-04-28T18:47:26.796Z,11.40
2019-04-28T18:49:55.795Z,11.40
2019-04-28T18:52:25.961Z,11.40
2019-04-28T18:54:54.991Z,11.30
2019-04-28T18:57:24.096Z,11.30
2019-04-28T18:59:53.085Z,11.30
2019-04-28T19:02:32.664Z,11.30
2019-04-28T19:05:01.613Z,11.30
2019-04-28T19:07:49.389Z,11.30
2019-04-28T19:10:27.901Z,11.20
2019-04-28T19:13:01.216Z,11.10
2019-04-28T19:16:01.248Z,11.00
2019-04-28T19:18:35.629Z,10.90
2019-04-28T19:21:04.759Z,10.80
2019-04-28T19:23:35.031Z,10.70
2019-04-28T19:26:10.888Z,10.70
2019-04-28T19:28:40.977Z,10.60
2019-04-28T19:31:10.295Z,10.60
2019-04-28T19:33:39.560Z,10.50
2019-04-28T19:36:08.854Z,10.50
2019-04-28T19:38:39.498Z,10.50
2019-04-28T19:41:08.464Z,10.50
2019-04-28T19:43:37.644Z,10.50
2019-04-28T19:46:09.189Z,10.50
2019-04-28T19:48:38.839Z,10.50
2019-04-28T19:51:07.848Z,10.40
2019-04-28T19:53:36.944Z,10.40
2019-04-28T19:56:11.933Z,10.40
2019-04-28T19:58:49.146Z,10.30
2019-04-28T20:01:24.308Z,10.30
2019-04-28T20:03:53.363Z,10.40
2019-04-28T20:06:22.493Z,10.30
2019-04-28T20:08:51.672Z,10.30
2019-04-28T20:11:20.655Z,10.30
2019-04-28T20:13:49.559Z,10.20
2019-04-28T20:16:18.532Z,10.10
2019-04-28T20:18:48.967Z,10.10
2019-04-28T20:21:18.324Z,10.20
2019-04-28T20:23:47.259Z,10.20
2019-04-28T20:26:16.328Z,10.10
2019-04-28T20:28:45.561Z,10.10
2019-04-28T20:31:14.533Z,10.00
2019-04-28T20:33:43.368Z,9.90
2019-04-28T20:36:34.568Z,9.80
2019-04-28T20:39:09.928Z,9.80
2019-04-28T20:41:38.884Z,9.70
2019-04-28T20:44:07.883Z,9.60
2019-04-28T20:46:37.188Z,9.60
2019-04-28T20:49:06.500Z,9.50
2019-04-28T20:51:35.760Z,9.40
2019-04-28T20:54:05.370Z,9.40
2019-04-28T20:56:34.333Z,9.30
2019-04-28T20:59:03.365Z,9.30
2019-04-28T21:01:32.165Z,9.30
2019-04-28T21:04:03.560Z,9.30
2019-04-28T21:06:32.386Z,9.20
2019-04-28T21:09:01.282Z,9.20
2019-04-28T21:11:30.281Z,9.10
2019-04-28T21:13:59.116Z,9.10
2019-04-28T21:16:28.021Z,9.00
2019-04-28T21:18:56.917Z,9.10
2019-04-28T21:21:25.760Z,9.10
2019-04-28T21:23:54.584Z,9.10
2019-04-28T21:26:23.471Z,9.10
2019-04-28T21:28:52.400Z,9.20
2019-04-28T21:31:21.184Z,9.20
2019-04-28T21:33:50.165Z,9.10
2019-04-28T21:36:19.016Z,9.00
2019-04-28T21:38:49.854Z,8.90
2019-04-28T21:41:18.833Z,8.80
2019-04-28T21:43:57.258Z,8.80
2019-04-28T21:46:44.317Z,8.80
2019-04-28T21:49:20.321Z,8.90
2019-04-28T21:51:49.349Z,8.90
2019-04-28T21:54:18.120Z,8.90
2019-04-28T21:56:47.107Z,8.80
2019-04-28T21:59:16.017Z,8.70
2019-04-28T22:01:45.008Z,8.60
2019-04-28T22:04:13.884Z,8.50
2019-04-28T22:06:42.860Z,8.40
2019-04-28T22:09:12.628Z,8.40
2019-04-28T22:11:41.494Z,8.30
2019-04-28T22:14:10.297Z,8.30
2019-04-28T22:16:39.284Z,8.30
2019-04-28T22:19:08.284Z,8.30
2019-04-28T22:21:37.072Z,8.30
2019-04-28T22:24:11.446Z,8.20
2019-04-28T22:26:44.332Z,8.20
2019-04-28T22:29:13.376Z,8.20
2019-04-28T22:31:42.440Z,8.20
2019-04-28T22:34:12.492Z,8.30
2019-04-28T22:36:41.637Z,8.30
2019-04-28T22:39:12.243Z,8.30
2019-04-28T22:41:41.123Z,8.30
2019-04-28T22:44:10.068Z,8.20
2019-04-28T22:46:38.937Z,8.20
2019-04-28T22:49:07.890Z,8.20
2019-04-28T22:51:36.843Z,8.20
2019-04-28T22:54:11.844Z,8.10
2019-04-28T22:56:42.773Z,8.10
2019-04-28T22:59:18.872Z,8.10
2019-04-28T23:01:52.600Z,8.10
2019-04-28T23:04:35.940Z,8.10
2019-04-28T23:07:05.736Z,8.10
2019-04-28T23:09:34.896Z,7.90
2019-04-28T23:12:04.068Z,7.80
2019-04-28T23:14:33.052Z,7.80
2019-04-28T23:17:02.000Z,7.80
2019-04-28T23:19:33.509Z,7.80
2019-04-28T23:22:16.942Z,7.70
2019-04-28T23:24:45.801Z,7.60
2019-04-28T23:27:14.741Z,7.60
2019-04-28T23:29:43.680Z,7.50
2019-04-28T23:32:13.232Z,7.50
2019-04-28T23:34:42.480Z,7.50
2019-04-28T23:37:11.745Z,7.40
2019-04-28T23:39:40.856Z,7.40
2019-04-28T23:42:19.136Z,7.40
2019-04-28T23:44:48.038Z,7.50
2019-04-28T23:47:16.868Z,7.50
2019-04-28T23:49:45.832Z,7.40
2019-04-28T23:52:33.728Z,7.30
2019-04-28T23:55:04.553Z,7.20
2019-04-28T23:57:33.453Z,7.10
